• Join FlightAware (Why Join?)
  • Login
  • US Flag 
10:44PM EDT


 

Airport Tracker/Info


-or-


 

Live Flight TrackerFlight Track Log ✈ N158BH ✈ 22-Aug-2014 ✈ KECP - KDHN

Flight Track Log - Related Links

Times and Time Zones

All times are in EDT time to prevent confusion due to time zone crossing. See the N158BH flight status page for this flight to view local times or setup timezone preferences in your user account.

Time Position Orientation Groundspeed Altitude Reporting Facility
EDT Latitude Longitude Course Direction KTS MPH feet Rate Location/Type
11:00AM 30.6514 -85.6889 19° North 175 201 5,100  Level Jacksonville Center
11:01AM 30.7039 -85.6711 16° North 192 221 5,100  Level Jacksonville Center
11:02AM 30.7564 -85.6508 18° North 191 220 5,100 -60 Level Jacksonville Center
11:03AM 30.7986 -85.6328 20° North 147 169 5,000  Descending Jacksonville Center
11:04AM 30.8239 -85.6189 25° Northeast 91 105 5,100  Climbing Jacksonville Center
11:05AM 30.5904 -85.7128 17° North  Level Estimated
11:05AM 30.8431 -85.6097 22° Northeast 70 81 5,100  Level Jacksonville Center
11:06AM 30.8508 -85.6294 295° West 69 79 4,900 -180 Descending Jacksonville Center
11:07AM 30.8608 -85.6539 295° West 81 93 4,800 60 Descending Jacksonville Center
11:08AM 30.8725 -85.6881 292° West 136 157 5,100 120 Climbing Jacksonville Center
11:09AM 30.8928 -85.7200 306° West 156 180 5,100  Level Jacksonville Center
11:10AM 30.9386 -85.7192 North 147 169 5,100  Level Jacksonville Center
11:11AM 30.9472 -85.7144 25° Northeast 126 145 5,100 -120 Level Jacksonville Center
11:12AM 30.9461 -85.6661 92° East 146 168 4,900 -60 Descending Jacksonville Center
11:13AM 30.9428 -85.6319 96° East 107 123 5,000 60 Climbing Jacksonville Center
11:15AM 30.9353 -85.5858 101° East 149 171 5,100 -120 Climbing Jacksonville Center
11:15AM 30.9019 -85.5847 178° South 119 137 4,800  Descending Jacksonville Center
11:17AM 30.8664 -85.5839 179° South 138 159 5,100 120 Climbing Jacksonville Center
11:17AM 30.8472 -85.6075 227° Southwest 150 173 5,100 -180 Level Jacksonville Center
11:18AM 30.8464 -85.6436 268° West 105 121 4,800  Descending Jacksonville Center
11:19AM 30.8456 -85.6847 269° West 146 168 5,100 120 Climbing Jacksonville Center
11:20AM 30.8528 -85.7311 280° West 153 176 5,100 -60 Level Jacksonville Center
11:21AM 30.8444 -85.7381 216° Southwest 147 169 5,000  Descending Jacksonville Center
11:23AM 30.8419 -85.7475 253° West 150 173 5,100 60 Climbing Jacksonville Center
11:23AM 30.8647 -85.7556 343° North 164 189 5,200  Climbing Jacksonville Center
11:24AM 30.8992 -85.7131 47° Northeast 186 214 5,100 -360 Descending Jacksonville Center
11:25AM 30.9419 -85.6708 40° Northeast 198 228 4,500 -600 Descending Jacksonville Center
11:26AM 30.9867 -85.6261 41° Northeast 206 237 3,900 -600 Descending Jacksonville Center
11:27AM 31.0333 -85.5886 35° Northeast 207 238 3,300 -420 Descending Jacksonville Center
11:29AM 31.0781 -85.5461 39° Northeast 198 228 3,100 -120 Descending Jacksonville Center
11:30AM 31.1142 -85.5181 34° Northeast 169 194 3,100 -180 Level Jacksonville Center
11:31AM 31.1567 -85.4853 33° Northeast 166 191 2,800 -480 Descending Jacksonville Center
11:32AM 31.2011 -85.4597 26° Northeast 168 193 2,200 -420 Descending Jacksonville Center
11:33AM 31.2369 -85.4364 29° Northeast 159 183 2,000 -240 Descending Jacksonville Center
11:34AM 31.2708 -85.4181 25° Northeast 123 142 1,800 -540 Descending Jacksonville Center
11:35AM 31.3039 -85.4311 341° North 116 133 800 -840 Descending Jacksonville Center